Daily Tabular Data
[Select Refresh to Update]


6/23/18
Time         Wind Dir   Wind Spd  Wind Gust     Hum In   Humidity    Temp In       Temp  Raw Barom   Tot Rain Wind Chill Heat Ix In Heat Index  Dew Point  DailyRain   HourRain   RainRate
                            mph        mph          %          %         F         F         in         in         F         F         F         F         in         in      in/hr
12:00am           165          1          6         60         91       74.3       64.0      28.98       4.96       64.0       76.1       69.8       61.3       0.00       0.00      0.000
12:30am           178          2          7         60         93       73.9       63.4      28.97       4.96       63.4       75.7       69.5       61.3       0.00       0.00      0.000
1:00am            170          0          8         61         93       73.6       63.7      28.97       4.96       63.7       75.5       69.8       61.6       0.00       0.00      0.000
1:30am            192          4          5         61         93       73.4       63.6      28.97       4.96       63.6       75.3       69.7       61.5       0.00       0.00      0.000
2:00am            171          5          6         61         93       73.1       63.3      28.96       4.96       63.3       75.0       69.4       61.2       0.00       0.00      0.000
2:30am            162          5          5         62         94       72.8       62.8      28.96       4.96       62.8       74.8       69.0       61.1       0.00       0.00      0.000
3:00am            162          2          5         62         94       72.6       62.7      28.96       4.96       62.7       74.6       68.9       61.0       0.00       0.00      0.000
3:30am            151          0          4         62         94       72.4       62.8      28.95       4.96       62.8       74.4       69.0       61.1       0.00       0.00      0.000
4:00am            168          1          4         62         94       72.3       62.8      28.95       4.96       62.8       74.3       69.0       61.1       0.00       0.00      0.000
4:30am            185          0          6         62         94       72.1       62.9      28.95       4.96       62.9       74.1       69.1       61.2       0.00       0.00      0.000
5:00am            183          0          0         63         94       72.0       63.0      28.95       4.96       63.0       74.1       69.2       61.3       0.00       0.00      0.000
5:30am            175          0          0         61         94       72.9       62.9      28.95       4.96       62.9       74.8       69.1       61.2       0.00       0.00      0.000
6:00am            177          0          0         61         94       73.4       62.9      28.96       4.96       62.9       75.3       69.1       61.2       0.00       0.00      0.000
6:30am            190          0          4         60         93       73.5       62.8      28.96       4.96       62.8       75.3       68.9       60.8       0.00       0.00      0.000
7:00am            167          3          6         59         93       73.6       62.5      28.97       4.96       62.5       75.3       68.6       60.5       0.00       0.00      0.000
7:30am            173          0          5         59         92       73.5       62.9      28.98       4.96       62.9       75.2       68.8       60.5       0.00       0.00      0.000
8:00am            174          0          4         59         91       73.6       63.0      28.99       4.96       63.0       75.3       68.8       60.3       0.00       0.00      0.000
8:30am            194          0          5         58         90       73.6       63.3      29.00       4.96       63.3       75.2       68.9       60.3       0.00       0.00      0.000
9:00am            159          0          6         58         88       73.7       64.2      29.00       4.96       64.2       75.3       69.5       60.6       0.00       0.00      0.000
9:30am            189          3          8         57         86       73.8       64.8      29.01       4.96       64.8       75.3       69.9       60.5       0.00       0.00      0.000
10:00am           193          6          6         57         80       74.0       67.5      29.01       4.96       67.5       75.5       71.7       61.1       0.00       0.00      0.000
10:30am           150          2          9         57         80       74.2       68.3      29.02       4.96       68.3       75.7       72.5       61.9       0.00       0.00      0.000
11:00am           190          3         11         57         76       74.5       70.2      29.02       4.96       70.2       76.0       73.9       62.3       0.00       0.00      0.000
11:30am           194          3         12         57         75       74.8       70.9      29.02       4.96       70.9       76.3       74.5       62.6       0.00       0.00      0.000
12:00pm           244          3         17         56         70       75.0       72.2      29.03       4.96       72.2       76.4       75.2       61.9       0.00       0.00      0.000
12:30pm           233          5         15         56         71       75.3       72.9      29.02       4.96       72.9       76.7       76.0       63.0       0.00       0.00      0.000
1:00pm            198         10         16         55         67       75.4       73.1      29.02       4.96       73.1       76.7       75.7       61.5       0.00       0.00      0.000
1:30pm            215          9         14         55         68       75.6       72.5      29.02       4.96       72.5       76.9       75.2       61.3       0.00       0.00      0.000